sensor_id;sensor_type;location;lat;lon;timestamp;pressure;altitude;pressure_sealevel;temperature;humidity
40650;BME280;26342;42.826;23.992;2023-04-04T00:01:59;93981.75;;;8.36;100.00
40650;BME280;26342;42.826;23.992;2023-04-04T00:04:26;93965.06;;;8.31;100.00
40650;BME280;26342;42.826;23.992;2023-04-04T00:06:52;93972.66;;;8.48;100.00
40650;BME280;26342;42.826;23.992;2023-04-04T00:09:17;93960.19;;;8.43;100.00
40650;BME280;26342;42.826;23.992;2023-04-04T00:11:45;93957.78;;;8.47;100.00
40650;BME280;26342;42.826;23.992;2023-04-04T00:14:11;93960.97;;;8.49;100.00
40650;BME280;26342;42.826;23.992;2023-04-04T00:16:36;93961.78;;;8.44;100.00
40650;BME280;26342;42.826;23.992;2023-04-04T00:19:02;93967.16;;;8.39;100.00
40650;BME280;26342;42.826;23.992;2023-04-04T00:21:27;93954.38;;;8.41;100.00
40650;BME280;26342;42.826;23.992;2023-04-04T00:23:55;93953.25;;;8.47;100.00
40650;BME280;26342;42.826;23.992;2023-04-04T00:26:21;93944.81;;;8.40;100.00
40650;BME280;26342;42.826;23.992;2023-04-04T00:28:47;93948.25;;;8.41;100.00
40650;BME280;26342;42.826;23.992;2023-04-04T00:31:12;93938.41;;;8.41;100.00
40650;BME280;26342;42.826;23.992;2023-04-04T00:33:38;93940.56;;;8.39;100.00
40650;BME280;26342;42.826;23.992;2023-04-04T00:36:03;93949.34;;;8.34;100.00
40650;BME280;26342;42.826;23.992;2023-04-04T00:38:29;93937.13;;;8.38;100.00
40650;BME280;26342;42.826;23.992;2023-04-04T00:40:55;93934.47;;;8.38;100.00
40650;BME280;26342;42.826;23.992;2023-04-04T00:43:25;93931.56;;;8.35;100.00
40650;BME280;26342;42.826;23.992;2023-04-04T00:45:51;93933.66;;;8.33;100.00
40650;BME280;26342;42.826;23.992;2023-04-04T00:48:19;93937.94;;;8.29;100.00
40650;BME280;26342;42.826;23.992;2023-04-04T00:50:44;93933.13;;;8.36;100.00
40650;BME280;26342;42.826;23.992;2023-04-04T00:53:10;93928.28;;;8.43;100.00
40650;BME280;26342;42.826;23.992;2023-04-04T00:55:36;93925.63;;;8.43;100.00
40650;BME280;26342;42.826;23.992;2023-04-04T00:58:02;93927.28;;;8.34;100.00
40650;BME280;26342;42.826;23.992;2023-04-04T01:00:28;93931.81;;;8.33;100.00
40650;BME280;26342;42.826;23.992;2023-04-04T01:02:54;93931.56;;;8.30;100.00
40650;BME280;26342;42.826;23.992;2023-04-04T01:05:19;93925.97;;;8.31;100.00
40650;BME280;26342;42.826;23.992;2023-04-04T01:07:45;93922.78;;;8.29;100.00
40650;BME280;26342;42.826;23.992;2023-04-04T01:10:11;93937.66;;;8.35;100.00
40650;BME280;26342;42.826;23.992;2023-04-04T01:12:37;93914.56;;;8.31;100.00
40650;BME280;26342;42.826;23.992;2023-04-04T01:15:04;93915.25;;;8.47;100.00
40650;BME280;26342;42.826;23.992;2023-04-04T01:17:30;93912.81;;;8.50;100.00
40650;BME280;26342;42.826;23.992;2023-04-04T01:20:14;93916.88;;;8.43;100.00
40650;BME280;26342;42.826;23.992;2023-04-04T01:22:42;93908.97;;;8.32;100.00
40650;BME280;26342;42.826;23.992;2023-04-04T01:25:10;93908.41;;;8.35;100.00
40650;BME280;26342;42.826;23.992;2023-04-04T01:27:35;93917.97;;;8.36;100.00
40650;BME280;26342;42.826;23.992;2023-04-04T01:30:01;93911.84;;;8.41;100.00
40650;BME280;26342;42.826;23.992;2023-04-04T01:32:35;93897.75;;;8.41;100.00
40650;BME280;26342;42.826;23.992;2023-04-04T01:35:17;93901.50;;;8.39;100.00
40650;BME280;26342;42.826;23.992;2023-04-04T01:38:01;93877.66;;;8.24;100.00
40650;BME280;26342;42.826;23.992;2023-04-04T01:40:32;93903.66;;;8.32;100.00
40650;BME280;26342;42.826;23.992;2023-04-04T01:43:03;93901.28;;;8.31;100.00
40650;BME280;26342;42.826;23.992;2023-04-04T01:45:29;93888.28;;;8.24;100.00
40650;BME280;26342;42.826;23.992;2023-04-04T01:47:55;93880.34;;;8.19;100.00
40650;BME280;26342;42.826;23.992;2023-04-04T01:50:23;93889.97;;;8.15;100.00
40650;BME280;26342;42.826;23.992;2023-04-04T01:52:49;93886.81;;;8.08;100.00
40650;BME280;26342;42.826;23.992;2023-04-04T01:55:14;93882.03;;;8.05;100.00
40650;BME280;26342;42.826;23.992;2023-04-04T01:57:40;93881.31;;;7.99;100.00
40650;BME280;26342;42.826;23.992;2023-04-04T02:00:06;93883.69;;;8.01;100.00
40650;BME280;26342;42.826;23.992;2023-04-04T02:02:31;93881.84;;;7.96;100.00
40650;BME280;26342;42.826;23.992;2023-04-04T02:04:58;93876.25;;;7.98;100.00
40650;BME280;26342;42.826;23.992;2023-04-04T02:07:24;93875.94;;;8.04;100.00
40650;BME280;26342;42.826;23.992;2023-04-04T02:09:49;93880.16;;;8.10;100.00
40650;BME280;26342;42.826;23.992;2023-04-04T02:12:15;93878.28;;;8.11;100.00
40650;BME280;26342;42.826;23.992;2023-04-04T02:14:41;93871.16;;;8.06;100.00
40650;BME280;26342;42.826;23.992;2023-04-04T02:17:06;93876.41;;;8.11;100.00
40650;BME280;26342;42.826;23.992;2023-04-04T02:19:32;93882.31;;;8.08;100.00
40650;BME280;26342;42.826;23.992;2023-04-04T02:21:57;93883.41;;;8.02;100.00
40650;BME280;26342;42.826;23.992;2023-04-04T02:24:23;93880.53;;;7.99;100.00
40650;BME280;26342;42.826;23.992;2023-04-04T02:26:48;93879.16;;;8.01;100.00
40650;BME280;26342;42.826;23.992;2023-04-04T02:29:13;93882.59;;;8.02;100.00
40650;BME280;26342;42.826;23.992;2023-04-04T02:31:39;93887.34;;;8.05;100.00
40650;BME280;26342;42.826;23.992;2023-04-04T02:34:04;93889.19;;;8.09;100.00
40650;BME280;26342;42.826;23.992;2023-04-04T02:36:30;93882.81;;;8.10;100.00
40650;BME280;26342;42.826;23.992;2023-04-04T02:38:55;93878.56;;;8.09;100.00
40650;BME280;26342;42.826;23.992;2023-04-04T02:41:21;93880.66;;;8.12;100.00
40650;BME280;26342;42.826;23.992;2023-04-04T02:43:47;93893.41;;;8.16;100.00
40650;BME280;26342;42.826;23.992;2023-04-04T02:46:12;93893.59;;;8.24;100.00
40650;BME280;26342;42.826;23.992;2023-04-04T02:48:38;93895.41;;;8.29;100.00
40650;BME280;26342;42.826;23.992;2023-04-04T02:51:04;93897.25;;;8.33;100.00
40650;BME280;26342;42.826;23.992;2023-04-04T02:53:29;93872.06;;;8.26;100.00
40650;BME280;26342;42.826;23.992;2023-04-04T02:55:55;93886.63;;;8.38;100.00
40650;BME280;26342;42.826;23.992;2023-04-04T02:58:20;93891.94;;;8.33;100.00
40650;BME280;26342;42.826;23.992;2023-04-04T03:00:52;93890.88;;;8.29;100.00
40650;BME280;26342;42.826;23.992;2023-04-04T03:03:18;93903.34;;;8.34;100.00
40650;BME280;26342;42.826;23.992;2023-04-04T03:05:43;93902.56;;;8.38;100.00
40650;BME280;26342;42.826;23.992;2023-04-04T03:08:10;93908.59;;;8.49;100.00
40650;BME280;26342;42.826;23.992;2023-04-04T03:10:36;93904.09;;;8.45;100.00
40650;BME280;26342;42.826;23.992;2023-04-04T03:13:01;93903.28;;;8.44;100.00
40650;BME280;26342;42.826;23.992;2023-04-04T03:15:27;93912.31;;;8.48;100.00
40650;BME280;26342;42.826;23.992;2023-04-04T03:17:52;93916.56;;;8.49;100.00
40650;BME280;26342;42.826;23.992;2023-04-04T03:20:18;93911.03;;;8.46;100.00
40650;BME280;26342;42.826;23.992;2023-04-04T03:22:44;93903.06;;;8.41;100.00
40650;BME280;26342;42.826;23.992;2023-04-04T03:25:09;93918.78;;;8.37;100.00
40650;BME280;26342;42.826;23.992;2023-04-04T03:27:35;93910.53;;;8.38;100.00
40650;BME280;26342;42.826;23.992;2023-04-04T03:30:01;93908.38;;;8.41;100.00
40650;BME280;26342;42.826;23.992;2023-04-04T03:32:26;93908.09;;;8.42;100.00
40650;BME280;26342;42.826;23.992;2023-04-04T03:34:52;93908.97;;;8.37;100.00
40650;BME280;26342;42.826;23.992;2023-04-04T03:37:17;93913.19;;;8.38;100.00
40650;BME280;26342;42.826;23.992;2023-04-04T03:39:43;93913.72;;;8.35;100.00
40650;BME280;26342;42.826;23.992;2023-04-04T03:42:09;93913.72;;;8.35;100.00
40650;BME280;26342;42.826;23.992;2023-04-04T03:44:34;93907.69;;;8.25;100.00
40650;BME280;26342;42.826;23.992;2023-04-04T03:47:01;93907.41;;;8.26;100.00
40650;BME280;26342;42.826;23.992;2023-04-04T03:49:27;93900.97;;;8.32;100.00
40650;BME280;26342;42.826;23.992;2023-04-04T03:51:53;93902.28;;;8.40;100.00
40650;BME280;26342;42.826;23.992;2023-04-04T03:54:18;93907.88;;;8.33;100.00
40650;BME280;26342;42.826;23.992;2023-04-04T03:56:44;93893.53;;;8.34;100.00
40650;BME280;26342;42.826;23.992;2023-04-04T03:59:10;93897.81;;;8.30;100.00
40650;BME280;26342;42.826;23.992;2023-04-04T04:01:35;93900.22;;;8.27;100.00
40650;BME280;26342;42.826;23.992;2023-04-04T04:04:00;93915.06;;;8.33;100.00
40650;BME280;26342;42.826;23.992;2023-04-04T04:06:26;93901.53;;;8.29;100.00
40650;BME280;26342;42.826;23.992;2023-04-04T04:08:51;93894.50;;;8.15;100.00
40650;BME280;26342;42.826;23.992;2023-04-04T04:11:17;93900.78;;;8.24;100.00
40650;BME280;26342;42.826;23.992;2023-04-04T04:13:43;93914.06;;;8.24;100.00
40650;BME280;26342;42.826;23.992;2023-04-04T04:16:08;93909.28;;;8.26;100.00
40650;BME280;26342;42.826;23.992;2023-04-04T04:18:34;93922.56;;;8.26;100.00
40650;BME280;26342;42.826;23.992;2023-04-04T04:20:59;93928.94;;;8.25;100.00
40650;BME280;26342;42.826;23.992;2023-04-04T04:23:27;93914.59;;;8.21;100.00
40650;BME280;26342;42.826;23.992;2023-04-04T04:25:52;93924.38;;;8.35;100.00
40650;BME280;26342;42.826;23.992;2023-04-04T04:28:18;93930.22;;;8.32;100.00
40650;BME280;26342;42.826;23.992;2023-04-04T04:30:44;93935.84;;;8.26;100.00
40650;BME280;26342;42.826;23.992;2023-04-04T04:33:11;93937.19;;;8.23;100.00
40650;BME280;26342;42.826;23.992;2023-04-04T04:35:37;93926.56;;;8.23;100.00
40650;BME280;26342;42.826;23.992;2023-04-04T04:38:04;93948.06;;;8.27;100.00
40650;BME280;26342;42.826;23.992;2023-04-04T04:40:31;93943.59;;;8.22;100.00
40650;BME280;26342;42.826;23.992;2023-04-04T04:42:56;93939.31;;;8.21;100.00
40650;BME280;26342;42.826;23.992;2023-04-04T04:45:22;93946.00;;;8.19;100.00
40650;BME280;26342;42.826;23.992;2023-04-04T04:47:48;93951.31;;;8.19;100.00
40650;BME280;26342;42.826;23.992;2023-04-04T04:50:14;93952.94;;;8.15;100.00
40650;BME280;26342;42.826;23.992;2023-04-04T04:52:40;93957.72;;;8.12;100.00
40650;BME280;26342;42.826;23.992;2023-04-04T04:55:06;93946.66;;;8.00;100.00
40650;BME280;26342;42.826;23.992;2023-04-04T04:57:32;93948.22;;;8.01;100.00
40650;BME280;26342;42.826;23.992;2023-04-04T04:59:59;93945.81;;;8.05;100.00
40650;BME280;26342;42.826;23.992;2023-04-04T05:02:25;93958.28;;;8.04;100.00
40650;BME280;26342;42.826;23.992;2023-04-04T05:04:52;93968.66;;;8.06;100.00
40650;BME280;26342;42.826;23.992;2023-04-04T05:07:17;93958.06;;;8.01;100.00
40650;BME280;26342;42.826;23.992;2023-04-04T05:09:43;93947.94;;;8.08;100.00
40650;BME280;26342;42.826;23.992;2023-04-04T05:12:09;93961.94;;;8.19;100.00
40650;BME280;26342;42.826;23.992;2023-04-04T05:14:34;93960.56;;;8.21;100.00
40650;BME280;26342;42.826;23.992;2023-04-04T05:17:00;93968.53;;;8.26;100.00
40650;BME280;26342;42.826;23.992;2023-04-04T05:19:26;93969.31;;;8.27;100.00
40650;BME280;26342;42.826;23.992;2023-04-04T05:21:51;93965.03;;;8.36;100.00
40650;BME280;26342;42.826;23.992;2023-04-04T05:24:18;93964.50;;;8.29;100.00
40650;BME280;26342;42.826;23.992;2023-04-04T05:26:44;93982.06;;;8.35;100.00
40650;BME280;26342;42.826;23.992;2023-04-04T05:29:09;93968.50;;;8.31;100.00
40650;BME280;26342;42.826;23.992;2023-04-04T05:31:35;93986.25;;;8.41;100.00
40650;BME280;26342;42.826;23.992;2023-04-04T05:34:01;93966.34;;;8.33;100.00
40650;BME280;26342;42.826;23.992;2023-04-04T05:36:35;93978.81;;;8.43;100.00
40650;BME280;26342;42.826;23.992;2023-04-04T05:39:04;93980.38;;;8.44;100.00
40650;BME280;26342;42.826;23.992;2023-04-04T05:41:35;93976.09;;;8.53;100.00
40650;BME280;26342;42.826;23.992;2023-04-04T05:44:01;93974.44;;;8.57;100.00
40650;BME280;26342;42.826;23.992;2023-04-04T05:46:27;93993.25;;;8.66;100.00
40650;BME280;26342;42.826;23.992;2023-04-04T05:48:52;93984.50;;;8.65;100.00
40650;BME280;26342;42.826;23.992;2023-04-04T05:51:17;93991.44;;;8.61;100.00
40650;BME280;26342;42.826;23.992;2023-04-04T05:53:43;93988.50;;;8.63;100.00
40650;BME280;26342;42.826;23.992;2023-04-04T05:56:12;93982.44;;;8.57;100.00
40650;BME280;26342;42.826;23.992;2023-04-04T05:58:38;93985.88;;;8.58;100.00
40650;BME280;26342;42.826;23.992;2023-04-04T06:01:07;93987.75;;;8.57;100.00
40650;BME280;26342;42.826;23.992;2023-04-04T06:03:34;93990.41;;;8.57;100.00
40650;BME280;26342;42.826;23.992;2023-04-04T06:06:01;93986.94;;;8.62;100.00
40650;BME280;26342;42.826;23.992;2023-04-04T06:08:29;93989.00;;;8.65;100.00
40650;BME280;26342;42.826;23.992;2023-04-04T06:10:54;93976.81;;;8.59;100.00
40650;BME280;26342;42.826;23.992;2023-04-04T06:13:20;93984.22;;;8.67;100.00
40650;BME280;26342;42.826;23.992;2023-04-04T06:15:46;93986.84;;;8.72;100.00
40650;BME280;26342;42.826;23.992;2023-04-04T06:18:11;93984.75;;;8.69;100.00
40650;BME280;26342;42.826;23.992;2023-04-04T06:20:37;93990.56;;;8.71;100.00
40650;BME280;26342;42.826;23.992;2023-04-04T06:23:02;93996.63;;;8.77;100.00
40650;BME280;26342;42.826;23.992;2023-04-04T06:25:29;93994.31;;;8.70;100.00
40650;BME280;26342;42.826;23.992;2023-04-04T06:27:55;94006.03;;;8.69;100.00
40650;BME280;26342;42.826;23.992;2023-04-04T06:30:21;94004.41;;;8.68;100.00
40650;BME280;26342;42.826;23.992;2023-04-04T06:32:46;94006.53;;;8.71;100.00
40650;BME280;26342;42.826;23.992;2023-04-04T06:35:12;94002.28;;;8.70;100.00
40650;BME280;26342;42.826;23.992;2023-04-04T06:37:37;94017.91;;;8.77;100.00
40650;BME280;26342;42.826;23.992;2023-04-04T06:40:03;94018.47;;;8.74;100.00
40650;BME280;26342;42.826;23.992;2023-04-04T06:42:29;94024.84;;;8.78;100.00
40650;BME280;26342;42.826;23.992;2023-04-04T06:44:54;94020.63;;;8.72;100.00
40650;BME280;26342;42.826;23.992;2023-04-04T06:47:20;94029.94;;;8.69;100.00
40650;BME280;26342;42.826;23.992;2023-04-04T06:49:46;94019.88;;;8.61;100.00
40650;BME280;26342;42.826;23.992;2023-04-04T06:52:12;94038.25;;;8.62;100.00
40650;BME280;26342;42.826;23.992;2023-04-04T06:54:39;94039.06;;;8.58;100.00
40650;BME280;26342;42.826;23.992;2023-04-04T06:57:04;94044.66;;;8.56;100.00
40650;BME280;26342;42.826;23.992;2023-04-04T06:59:30;94049.41;;;8.59;100.00
40650;BME280;26342;42.826;23.992;2023-04-04T07:01:56;94048.13;;;8.52;100.00
40650;BME280;26342;42.826;23.992;2023-04-04T07:04:21;94054.28;;;8.47;100.00
40650;BME280;26342;42.826;23.992;2023-04-04T07:06:47;94062.28;;;8.42;100.00
40650;BME280;26342;42.826;23.992;2023-04-04T07:09:12;94061.50;;;8.42;100.00
40650;BME280;26342;42.826;23.992;2023-04-04T07:11:38;94061.78;;;8.35;100.00
40650;BME280;26342;42.826;23.992;2023-04-04T07:14:03;94066.06;;;8.21;100.00
40650;BME280;26342;42.826;23.992;2023-04-04T07:16:28;94069.56;;;8.16;100.00
40650;BME280;26342;42.826;23.992;2023-04-04T07:18:55;94081.78;;;8.12;100.00
40650;BME280;26342;42.826;23.992;2023-04-04T07:21:21;94081.06;;;7.96;100.00
40650;BME280;26342;42.826;23.992;2023-04-04T07:23:46;94083.44;;;7.98;100.00
40650;BME280;26342;42.826;23.992;2023-04-04T07:26:11;94083.44;;;7.98;100.00
40650;BME280;26342;42.826;23.992;2023-04-04T07:28:37;94075.78;;;7.91;100.00
40650;BME280;26342;42.826;23.992;2023-04-04T07:31:02;94088.00;;;7.87;100.00
40650;BME280;26342;42.826;23.992;2023-04-04T07:33:28;94091.44;;;7.88;100.00
40650;BME280;26342;42.826;23.992;2023-04-04T07:35:53;94091.22;;;7.79;100.00
40650;BME280;26342;42.826;23.992;2023-04-04T07:38:19;94097.34;;;7.74;100.00
40650;BME280;26342;42.826;23.992;2023-04-04T07:40:44;94107.97;;;7.64;100.00
40650;BME280;26342;42.826;23.992;2023-04-04T07:43:10;94109.84;;;7.64;100.00
40650;BME280;26342;42.826;23.992;2023-04-04T07:45:36;94111.47;;;7.60;100.00
40650;BME280;26342;42.826;23.992;2023-04-04T07:48:01;94115.44;;;7.47;100.00
40650;BME280;26342;42.826;23.992;2023-04-04T07:50:27;94129.00;;;7.50;100.00
40650;BME280;26342;42.826;23.992;2023-04-04T07:52:53;94110.13;;;7.42;100.00
40650;BME280;26342;42.826;23.992;2023-04-04T07:55:20;94122.88;;;7.45;100.00
40650;BME280;26342;42.826;23.992;2023-04-04T07:57:49;94116.50;;;7.56;100.00
40650;BME280;26342;42.826;23.992;2023-04-04T08:00:15;94121.53;;;7.57;100.00
40650;BME280;26342;42.826;23.992;2023-04-04T08:02:42;94125.78;;;7.64;100.00
40650;BME280;26342;42.826;23.992;2023-04-04T08:05:08;94126.59;;;7.54;100.00
40650;BME280;26342;42.826;23.992;2023-04-04T08:07:33;94133.47;;;7.55;100.00
40650;BME280;26342;42.826;23.992;2023-04-04T08:09:58;94133.22;;;7.51;100.00
40650;BME280;26342;42.826;23.992;2023-04-04T08:12:24;94134.03;;;7.52;100.00
40650;BME280;26342;42.826;23.992;2023-04-04T08:14:49;94140.41;;;7.46;100.00
40650;BME280;26342;42.826;23.992;2023-04-04T08:17:15;94141.19;;;7.31;100.00
40650;BME280;26342;42.826;23.992;2023-04-04T08:19:43;94143.34;;;7.29;100.00
40650;BME280;26342;42.826;23.992;2023-04-04T08:22:08;94157.66;;;7.28;100.00
40650;BME280;26342;42.826;23.992;2023-04-04T08:24:34;94161.91;;;7.29;100.00
40650;BME280;26342;42.826;23.992;2023-04-04T08:27:01;94159.50;;;7.17;100.00
40650;BME280;26342;42.826;23.992;2023-04-04T08:29:26;94165.06;;;7.16;100.00
40650;BME280;26342;42.826;23.992;2023-04-04T08:32:13;94154.97;;;7.03;100.00
40650;BME280;26342;42.826;23.992;2023-04-04T08:34:39;94176.50;;;7.11;100.00
40650;BME280;26342;42.826;23.992;2023-04-04T08:37:06;94188.69;;;7.17;100.00
40650;BME280;26342;42.826;23.992;2023-04-04T08:39:31;94182.56;;;7.02;100.00
40650;BME280;26342;42.826;23.992;2023-04-04T08:42:04;94195.84;;;7.07;100.00
40650;BME280;26342;42.826;23.992;2023-04-04T08:44:30;94193.47;;;7.05;100.00
40650;BME280;26342;42.826;23.992;2023-04-04T08:46:58;94187.88;;;6.96;100.00
40650;BME280;26342;42.826;23.992;2023-04-04T08:49:25;94196.63;;;6.97;100.00
40650;BME280;26342;42.826;23.992;2023-04-04T08:52:01;94205.59;;;6.86;100.00
40650;BME280;26342;42.826;23.992;2023-04-04T08:54:27;94211.19;;;6.89;100.00
40650;BME280;26342;42.826;23.992;2023-04-04T08:56:54;94211.16;;;6.84;100.00
40650;BME280;26342;42.826;23.992;2023-04-04T08:59:20;94219.41;;;6.83;100.00
40650;BME280;26342;42.826;23.992;2023-04-04T09:01:46;94225.22;;;6.80;100.00
40650;BME280;26342;42.826;23.992;2023-04-04T09:04:12;94219.66;;;6.81;100.00
40650;BME280;26342;42.826;23.992;2023-04-04T09:06:38;94220.16;;;6.73;100.00
40650;BME280;26342;42.826;23.992;2023-04-04T09:09:05;94231.31;;;6.75;100.00
40650;BME280;26342;42.826;23.992;2023-04-04T09:11:32;94226.47;;;6.62;100.00
40650;BME280;26342;42.826;23.992;2023-04-04T09:14:15;94241.09;;;6.69;100.00
40650;BME280;26342;42.826;23.992;2023-04-04T09:16:42;94248.25;;;6.69;100.00
40650;BME280;26342;42.826;23.992;2023-04-04T09:19:07;94249.59;;;6.71;100.00
40650;BME280;26342;42.826;23.992;2023-04-04T09:21:33;94243.97;;;6.58;100.00
40650;BME280;26342;42.826;23.992;2023-04-04T09:24:00;94249.69;;;6.34;100.00
40650;BME280;26342;42.826;23.992;2023-04-04T09:26:27;94251.28;;;6.35;100.00
40650;BME280;26342;42.826;23.992;2023-04-04T09:28:52;94254.94;;;6.24;100.00
40650;BME280;26342;42.826;23.992;2023-04-04T09:31:18;94259.19;;;6.25;100.00
40650;BME280;26342;42.826;23.992;2023-04-04T09:33:57;94273.53;;;6.39;100.00
40650;BME280;26342;42.826;23.992;2023-04-04T09:36:24;94270.34;;;6.37;100.00
40650;BME280;26342;42.826;23.992;2023-04-04T09:38:52;94266.13;;;6.36;100.00
40650;BME280;26342;42.826;23.992;2023-04-04T09:41:18;94279.59;;;6.30;100.00
40650;BME280;26342;42.826;23.992;2023-04-04T09:43:46;94282.22;;;6.25;100.00
40650;BME280;26342;42.826;23.992;2023-04-04T09:46:20;94279.78;;;6.18;100.00
40650;BME280;26342;42.826;23.992;2023-04-04T09:48:49;94282.63;;;6.06;100.00
40650;BME280;26342;42.826;23.992;2023-04-04T09:51:17;94289.03;;;6.10;100.00
40650;BME280;26342;42.826;23.992;2023-04-04T09:53:46;94294.28;;;6.05;100.00
40650;BME280;26342;42.826;23.992;2023-04-04T09:56:12;94294.78;;;6.02;100.00
40650;BME280;26342;42.826;23.992;2023-04-04T09:58:39;94298.50;;;6.01;100.00
40650;BME280;26342;42.826;23.992;2023-04-04T10:01:08;94299.03;;;6.03;100.00
40650;BME280;26342;42.826;23.992;2023-04-04T10:03:36;94292.41;;;6.06;100.00
40650;BME280;26342;42.826;23.992;2023-04-04T10:06:04;94299.09;;;6.13;100.00
40650;BME280;26342;42.826;23.992;2023-04-04T10:08:30;94300.38;;;6.06;100.00
40650;BME280;26342;42.826;23.992;2023-04-04T10:13:31;94311.28;;;6.14;100.00
40650;BME280;26342;42.826;23.992;2023-04-04T10:16:00;94302.78;;;6.12;100.00
40650;BME280;26342;42.826;23.992;2023-04-04T10:18:28;94298.84;;;6.15;100.00
40650;BME280;26342;42.826;23.992;2023-04-04T10:20:55;94315.38;;;6.32;100.00
40650;BME280;26342;42.826;23.992;2023-04-04T10:23:22;94322.19;;;6.23;100.00
40650;BME280;26342;42.826;23.992;2023-04-04T10:25:49;94321.75;;;6.36;100.00
40650;BME280;26342;42.826;23.992;2023-04-04T10:28:18;94314.91;;;6.40;100.00
40650;BME280;26342;42.826;23.992;2023-04-04T10:36:36;94342.44;;;6.39;100.00
40650;BME280;26342;42.826;23.992;2023-04-04T10:39:43;94345.69;;;6.52;100.00
40650;BME280;26342;42.826;23.992;2023-04-04T10:42:09;94347.66;;;6.66;100.00
40650;BME280;26342;42.826;23.992;2023-04-04T10:44:39;94344.25;;;6.76;100.00
40650;BME280;26342;42.826;23.992;2023-04-04T10:47:18;94350.38;;;6.82;100.00
40650;BME280;26342;42.826;23.992;2023-04-04T10:49:47;94348.81;;;6.91;100.00
40650;BME280;26342;42.826;23.992;2023-04-04T10:52:14;94349.09;;;6.89;100.00
40650;BME280;26342;42.826;23.992;2023-04-04T10:54:40;94343.56;;;7.01;100.00
40650;BME280;26342;42.826;23.992;2023-04-04T10:57:08;94359.28;;;7.13;100.00
40650;BME280;26342;42.826;23.992;2023-04-04T10:59:59;94343.91;;;7.20;100.00
40650;BME280;26342;42.826;23.992;2023-04-04T11:02:55;94348.22;;;7.36;100.00
40650;BME280;26342;42.826;23.992;2023-04-04T11:05:25;94359.31;;;7.23;100.00
40650;BME280;26342;42.826;23.992;2023-04-04T11:07:57;94360.59;;;7.15;100.00
40650;BME280;26342;42.826;23.992;2023-04-04T11:10:28;94359.28;;;7.18;100.00
40650;BME280;26342;42.826;23.992;2023-04-04T11:12:55;94362.22;;;7.26;100.00
40650;BME280;26342;42.826;23.992;2023-04-04T11:15:24;94367.03;;;7.30;100.00
40650;BME280;26342;42.826;23.992;2023-04-04T11:17:53;94368.34;;;7.32;100.00
40650;BME280;26342;42.826;23.992;2023-04-04T11:20:23;94361.13;;;7.12;100.00
40650;BME280;26342;42.826;23.992;2023-04-04T11:22:50;94362.72;;;7.18;100.00
40650;BME280;26342;42.826;23.992;2023-04-04T11:25:39;94372.03;;;7.21;100.00
40650;BME280;26342;42.826;23.992;2023-04-04T11:28:07;94368.03;;;7.18;100.00
40650;BME280;26342;42.826;23.992;2023-04-04T11:30:41;94370.69;;;7.13;100.00
40650;BME280;26342;42.826;23.992;2023-04-04T11:33:13;94376.00;;;7.13;100.00
40650;BME280;26342;42.826;23.992;2023-04-04T11:35:50;94373.03;;;7.05;100.00
40650;BME280;26342;42.826;23.992;2023-04-04T11:38:15;94366.41;;;7.07;100.00
40650;BME280;26342;42.826;23.992;2023-04-04T11:40:43;94373.59;;;7.17;100.00
40650;BME280;26342;42.826;23.992;2023-04-04T11:43:17;94372.84;;;7.26;100.00
40650;BME280;26342;42.826;23.992;2023-04-04T11:45:45;94370.69;;;7.18;100.00
40650;BME280;26342;42.826;23.992;2023-04-04T11:48:13;94368.00;;;7.08;100.00
40650;BME280;26342;42.826;23.992;2023-04-04T11:50:40;94375.38;;;7.01;100.00
40650;BME280;26342;42.826;23.992;2023-04-04T11:53:10;94367.63;;;6.84;100.00
40650;BME280;26342;42.826;23.992;2023-04-04T11:55:41;94371.84;;;6.80;100.00
40650;BME280;26342;42.826;23.992;2023-04-04T11:58:12;94363.28;;;6.68;100.00
40650;BME280;26342;42.826;23.992;2023-04-04T12:00:38;94370.50;;;6.72;100.00
40650;BME280;26342;42.826;23.992;2023-04-04T12:03:05;94370.72;;;6.66;100.00
40650;BME280;26342;42.826;23.992;2023-04-04T12:05:33;94373.84;;;6.63;100.00
40650;BME280;26342;42.826;23.992;2023-04-04T12:07:59;94368.56;;;6.63;100.00
40650;BME280;26342;42.826;23.992;2023-04-04T12:10:28;94375.16;;;6.60;100.00
40650;BME280;26342;42.826;23.992;2023-04-04T12:12:57;94355.25;;;6.53;100.00
40650;BME280;26342;42.826;23.992;2023-04-04T12:15:22;94377.88;;;6.65;100.00
40650;BME280;26342;42.826;23.992;2023-04-04T12:17:48;94350.75;;;6.53;100.00
40650;BME280;26342;42.826;23.992;2023-04-04T12:20:18;94377.13;;;6.75;100.00
40650;BME280;26342;42.826;23.992;2023-04-04T12:22:48;94379.50;;;6.77;100.00
40650;BME280;26342;42.826;23.992;2023-04-04T12:25:14;94383.50;;;6.79;100.00
40650;BME280;26342;42.826;23.992;2023-04-04T12:27:40;94388.56;;;6.86;100.00
40650;BME280;26342;42.826;23.992;2023-04-04T12:30:06;94377.69;;;6.82;100.00
40650;BME280;26342;42.826;23.992;2023-04-04T12:32:40;94387.78;;;6.85;100.00
40650;BME280;26342;42.826;23.992;2023-04-04T12:35:05;94390.44;;;6.85;100.00
40650;BME280;26342;42.826;23.992;2023-04-04T12:37:31;94395.22;;;6.88;100.00
40650;BME280;26342;42.826;23.992;2023-04-04T12:39:57;94390.94;;;6.82;100.00
40650;BME280;26342;42.826;23.992;2023-04-04T12:42:24;94390.69;;;6.84;100.00
40650;BME280;26342;42.826;23.992;2023-04-04T12:44:50;94399.75;;;6.88;100.00
40650;BME280;26342;42.826;23.992;2023-04-04T12:47:17;94393.56;;;6.77;100.00
40650;BME280;26342;42.826;23.992;2023-04-04T12:49:46;94397.53;;;6.75;100.00
40650;BME280;26342;42.826;23.992;2023-04-04T12:52:17;94392.97;;;6.65;100.00
40650;BME280;26342;42.826;23.992;2023-04-04T12:54:44;94400.13;;;6.64;100.00
40650;BME280;26342;42.826;23.992;2023-04-04T12:57:10;94388.84;;;6.47;100.00
40650;BME280;26342;42.826;23.992;2023-04-04T12:59:38;94389.38;;;6.44;100.00